SHMÚ vydal meteorologické výstrahy na WindGround ice Display warnings

METAR

Aeronautical MET Report METAR

METAR description (Slovak)

09.12.2016 - 01:30 UTC

METAR LZIB 090130Z 04002KT 0250 R31/0500N R22/0450N FZFG OVC001
M02/M02 Q1030 R88/CLRD//=
METAR LZKZ 090130Z 19004KT 1300 R01/1900N -SN BR OVC002 M03/M03
Q1029=
METAR LZPP 090130Z AUTO VRB01KT 3600 BR OVC004/// M02/M03 Q1030=
METAR LZSL 090130Z 00000KT 2000 BR FEW005 M04/M05 Q1028=
METAR LZTT 090130Z 09005KT 060V220 3000 BR FEW003 M05/M06 Q1024=
METAR LZZI 090130Z VRB02KT 3800 BR OVC004 M03/M04 Q1029=

09.12.2016 - 01:00 UTC

METAR LZIB 090100Z VRB01KT 0300 R31/0550N R22/0450N FZFG OVC001
M02/M02 Q1030 R88/CLRD//=
METAR LZKZ 090100Z 21004KT 2000 -SN BR SCT002 OVC005 M03/M03 Q1029=
METAR LZPP 090100Z AUTO VRB01KT 4500 BR OVC004/// M02/M03 Q1030=
METAR LZSL 090100Z 00000KT 2000 BR FEW005 M04/M05 Q1028=
METAR LZTT 090100Z VRB04KT 4000 BR FEW003 M05/M05 Q1024=
METAR LZZI 090100Z 26004KT 3300 BR OVC003 M03/M04 Q1029=

No data available

 

 

skok na menu ↑


skok na začiatok stránky ↑